Kodiak Airport Airport (ODK)

 

Airport Diagram
Current Weather/Forecast (LIFR Conditions)
METAR PADQ 312153Z 30015G22KT 1/2SM SN VV014 M02/M05 A2877 RMK PK WND 29026/2110 SLP744 P0001 T10221050 $ VIA AUTODIAL
TAF PADQ 312125Z 3121/0118 30018G25KT 6SM -SN BR SCT018 BKN030 TEMPO 3121/3124 1SM -SN BR BKN018 FM010000 25011G18KT P6SM OVC025 FM010500 27018G30KT P6SM SCT250 FM010800 28028G42KT P6SM SCT250

All Charts

Inbound Traffic (Arrivals)

No inbound traffic.


Outbound Traffic (Departures)

No outbound traffic.